createdAt,value
2018-02-14T00:01:39.353Z,1.37
2018-02-14T00:04:06.875Z,1.20
2018-02-14T00:06:34.345Z,1.21
2018-02-14T00:09:01.907Z,1.26
2018-02-14T00:11:29.405Z,1.28
2018-02-14T00:13:56.922Z,1.32
2018-02-14T00:16:24.394Z,1.34
2018-02-14T00:18:51.908Z,1.31
2018-02-14T00:21:19.385Z,1.29
2018-02-14T00:23:46.864Z,1.22
2018-02-14T00:26:14.367Z,1.27
2018-02-14T00:28:41.860Z,1.26
2018-02-14T00:31:09.985Z,1.20
2018-02-14T00:33:37.598Z,1.19
2018-02-14T00:36:05.131Z,1.16
2018-02-14T00:38:33.156Z,1.05
2018-02-14T00:41:00.643Z,1.02
2018-02-14T00:43:28.192Z,0.97
2018-02-14T00:45:55.672Z,0.93
2018-02-14T00:48:23.189Z,0.90
2018-02-14T00:50:50.662Z,0.88
2018-02-14T00:53:18.143Z,0.86
2018-02-14T00:55:45.712Z,0.87
2018-02-14T00:58:13.215Z,0.88
2018-02-14T01:00:40.774Z,0.93
2018-02-14T01:03:08.320Z,0.92
2018-02-14T01:05:35.829Z,0.93
2018-02-14T01:08:03.315Z,0.88
2018-02-14T01:10:30.831Z,0.81
2018-02-14T01:12:58.560Z,0.72
2018-02-14T01:15:26.093Z,0.87
2018-02-14T01:17:53.622Z,0.89
2018-02-14T01:20:26.691Z,0.83
2018-02-14T01:22:54.165Z,0.79
2018-02-14T01:25:21.650Z,0.76
2018-02-14T01:27:49.167Z,0.73
2018-02-14T01:30:16.649Z,0.75
2018-02-14T01:32:44.159Z,0.76
2018-02-14T01:35:11.658Z,0.75
2018-02-14T01:37:39.224Z,0.71
2018-02-14T01:40:06.816Z,0.64
2018-02-14T01:42:34.298Z,0.60
2018-02-14T01:45:01.829Z,0.51
2018-02-14T01:47:29.860Z,0.50
2018-02-14T01:49:58.597Z,0.51
2018-02-14T01:52:26.095Z,0.52
2018-02-14T01:54:53.603Z,0.57
2018-02-14T01:57:21.273Z,0.58
2018-02-14T01:59:48.790Z,0.57
2018-02-14T02:02:16.287Z,0.55
2018-02-14T02:04:43.812Z,0.58
2018-02-14T02:07:11.429Z,0.53
2018-02-14T02:09:38.978Z,0.54
2018-02-14T02:12:06.506Z,0.52
2018-02-14T02:14:34.610Z,0.51
2018-02-14T02:17:02.125Z,0.49
2018-02-14T02:19:29.654Z,0.49
2018-02-14T02:21:57.139Z,0.39
2018-02-14T02:24:24.652Z,0.41
2018-02-14T02:26:52.135Z,0.35
2018-02-14T02:29:19.654Z,0.35
2018-02-14T02:31:47.145Z,0.35
2018-02-14T02:34:14.642Z,0.33
2018-02-14T02:36:42.145Z,0.34
2018-02-14T02:39:21.539Z,0.32
2018-02-14T02:41:49.148Z,0.27
2018-02-14T02:44:16.634Z,0.26
2018-02-14T02:46:44.132Z,0.26
2018-02-14T02:49:11.681Z,0.19
2018-02-14T02:51:39.209Z,0.19
2018-02-14T02:54:06.685Z,0.24
2018-02-14T02:56:34.223Z,0.27
2018-02-14T02:59:01.738Z,0.31
2018-02-14T03:01:29.253Z,0.32
2018-02-14T03:03:56.760Z,0.27
2018-02-14T03:06:24.251Z,0.17
2018-02-14T03:08:51.749Z,0.08
2018-02-14T03:11:19.267Z,0.10
2018-02-14T03:13:47.352Z,0.07
2018-02-14T03:16:14.849Z,0.09
2018-02-14T03:18:42.462Z,0.09
2018-02-14T03:21:10.079Z,0.08
2018-02-14T03:23:37.606Z,0.09
2018-02-14T03:26:05.118Z,0.03
2018-02-14T03:28:32.598Z,0.01
2018-02-14T03:31:00.104Z,-0.05
2018-02-14T03:33:27.601Z,-0.07
2018-02-14T03:35:55.125Z,-0.10
2018-02-14T03:38:22.607Z,-0.07
2018-02-14T03:40:50.140Z,-0.04
2018-02-14T03:43:17.633Z,-0.04
2018-02-14T03:45:45.110Z,-0.02
2018-02-14T03:48:12.623Z,-0.04
2018-02-14T03:50:40.144Z,-0.08
2018-02-14T03:53:07.838Z,-0.07
2018-02-14T03:55:35.318Z,-0.05
2018-02-14T03:58:02.839Z,-0.08
2018-02-14T04:00:30.319Z,-0.07
2018-02-14T04:02:57.866Z,-0.06
2018-02-14T04:05:25.396Z,-0.03
2018-02-14T04:07:53.519Z,-0.04
2018-02-14T04:10:21.031Z,-0.07
2018-02-14T04:12:48.523Z,-0.06
2018-02-14T04:15:16.151Z,-0.12
2018-02-14T04:17:43.696Z,-0.09
2018-02-14T04:20:11.242Z,-0.07
2018-02-14T04:22:38.813Z,-0.07
2018-02-14T04:25:06.381Z,-0.20
2018-02-14T04:27:33.889Z,-0.25
2018-02-14T04:30:01.398Z,-0.30
2018-02-14T04:32:28.968Z,-0.41
2018-02-14T04:34:56.450Z,-0.39
2018-02-14T04:37:23.946Z,-0.38
2018-02-14T04:39:51.427Z,-0.36
2018-02-14T04:42:18.937Z,-0.39
2018-02-14T04:44:46.429Z,-0.31
2018-02-14T04:47:13.963Z,-0.28
2018-02-14T04:49:41.448Z,-0.34
2018-02-14T04:52:09.001Z,-0.33
2018-02-14T04:54:36.548Z,-0.40
2018-02-14T04:57:04.067Z,-0.41
2018-02-14T04:59:31.565Z,-0.42
2018-02-14T05:01:59.390Z,-0.37
2018-02-14T05:04:27.051Z,-0.34
2018-02-14T05:06:54.886Z,-0.38
2018-02-14T05:09:22.400Z,-0.39
2018-02-14T05:11:49.894Z,-0.38
2018-02-14T05:14:17.454Z,-0.40
2018-02-14T05:16:44.944Z,-0.42
2018-02-14T05:19:12.428Z,-0.42
2018-02-14T05:21:40.482Z,-0.46
2018-02-14T05:24:07.971Z,-0.47
2018-02-14T05:26:35.478Z,-0.52
2018-02-14T05:29:02.997Z,-0.55
2018-02-14T05:31:30.487Z,-0.52
2018-02-14T05:33:58.080Z,-0.50
2018-02-14T05:36:25.724Z,-0.47
2018-02-14T05:38:53.241Z,-0.44
2018-02-14T05:41:20.734Z,-0.44
2018-02-14T05:43:48.383Z,-0.49
2018-02-14T05:46:15.915Z,-0.52
2018-02-14T05:48:43.510Z,-0.52
2018-02-14T05:51:11.027Z,-0.51
2018-02-14T05:53:38.641Z,-0.55
2018-02-14T05:56:06.246Z,-0.53
2018-02-14T05:58:33.755Z,-0.53
2018-02-14T06:01:01.317Z,-0.57
2018-02-14T06:03:28.814Z,-0.59
2018-02-14T06:05:56.382Z,-0.58
2018-02-14T06:08:23.879Z,-0.57
2018-02-14T06:10:51.397Z,-0.57
2018-02-14T06:13:18.918Z,-0.60
2018-02-14T06:15:46.400Z,-0.58
2018-02-14T06:18:13.960Z,-0.59
2018-02-14T06:20:42.903Z,-0.59
2018-02-14T06:23:10.413Z,-0.62
2018-02-14T06:25:38.038Z,-0.71
2018-02-14T06:28:05.579Z,-0.66
2018-02-14T06:30:33.091Z,-0.64
2018-02-14T06:33:00.747Z,-0.68
2018-02-14T06:35:28.276Z,-0.70
2018-02-14T06:37:55.904Z,-0.68
2018-02-14T06:40:23.422Z,-0.69
2018-02-14T06:42:51.690Z,-0.66
2018-02-14T06:45:19.270Z,-0.69
2018-02-14T06:47:46.777Z,-0.66
2018-02-14T06:50:14.683Z,-0.68
2018-02-14T06:52:42.191Z,-0.70
2018-02-14T06:55:09.665Z,-0.72
2018-02-14T06:57:37.228Z,-0.67
2018-02-14T07:00:04.750Z,-0.66
2018-02-14T07:02:32.280Z,-0.67
2018-02-14T07:04:59.855Z,-0.68
2018-02-14T07:07:27.389Z,-0.67
2018-02-14T07:09:54.941Z,-0.52
2018-02-14T07:12:22.476Z,-0.27
2018-02-14T07:14:50.007Z,-0.03
2018-02-14T07:17:17.611Z,0.00
2018-02-14T07:19:45.301Z,0.16
2018-02-14T07:22:12.862Z,0.50
2018-02-14T07:24:40.456Z,0.94
2018-02-14T07:27:08.100Z,1.38
2018-02-14T07:29:35.777Z,2.01
2018-02-14T07:32:03.278Z,2.65
2018-02-14T07:34:30.783Z,3.26
2018-02-14T07:36:58.307Z,4.06
2018-02-14T07:39:25.841Z,4.81
2018-02-14T07:41:53.394Z,5.50
2018-02-14T07:44:20.954Z,5.90
2018-02-14T07:46:48.544Z,6.22
2018-02-14T07:49:16.206Z,6.59
2018-02-14T07:51:43.787Z,6.95
2018-02-14T07:54:11.280Z,7.25
2018-02-14T07:56:38.777Z,7.57
2018-02-14T07:59:06.850Z,7.86
2018-02-14T08:01:34.410Z,8.23
2018-02-14T08:04:02.014Z,8.62
2018-02-14T08:06:29.644Z,9.13
2018-02-14T08:08:57.246Z,9.39
2018-02-14T08:11:24.771Z,9.90
2018-02-14T08:13:52.285Z,9.82
2018-02-14T08:16:19.810Z,9.50
2018-02-14T08:18:47.329Z,9.08
2018-02-14T08:21:14.939Z,8.83
2018-02-14T08:23:42.475Z,8.92
2018-02-14T08:26:10.019Z,9.20
2018-02-14T08:28:37.534Z,9.30
2018-02-14T08:31:05.016Z,9.84
2018-02-14T08:33:33.353Z,9.80
2018-02-14T08:36:00.854Z,9.92
2018-02-14T08:38:28.368Z,9.99
2018-02-14T08:40:55.878Z,10.63
2018-02-14T08:43:23.407Z,11.46
2018-02-14T08:45:50.998Z,12.05
2018-02-14T08:48:18.566Z,12.73
2018-02-14T08:50:46.077Z,13.13
2018-02-14T08:53:13.620Z,12.93
2018-02-14T08:55:41.144Z,11.22
2018-02-14T08:58:08.668Z,10.10
2018-02-14T09:00:36.210Z,9.19
2018-02-14T09:03:03.695Z,8.37
2018-02-14T09:05:31.227Z,7.01
2018-02-14T09:07:58.707Z,6.41
2018-02-14T09:10:26.260Z,5.61
2018-02-14T09:12:53.862Z,5.60
2018-02-14T09:15:21.367Z,5.60
2018-02-14T09:17:48.900Z,5.60
2018-02-14T09:20:16.401Z,5.43
2018-02-14T09:22:43.915Z,5.07
2018-02-14T09:25:11.413Z,5.01
2018-02-14T09:27:39.033Z,4.99
2018-02-14T09:30:06.561Z,4.52
2018-02-14T09:32:34.287Z,4.30
2018-02-14T09:35:01.785Z,4.46
2018-02-14T09:37:29.289Z,4.05
2018-02-14T09:39:57.288Z,4.27
2018-02-14T09:42:24.808Z,4.26
2018-02-14T09:44:52.321Z,4.15
2018-02-14T09:47:19.849Z,4.23
2018-02-14T09:49:47.367Z,4.20
2018-02-14T09:52:14.842Z,4.17
2018-02-14T09:54:42.598Z,4.09
2018-02-14T09:57:10.087Z,3.97
2018-02-14T09:59:37.631Z,3.87
2018-02-14T10:02:05.120Z,3.84
2018-02-14T10:04:32.653Z,3.82
2018-02-14T10:07:00.183Z,3.76
2018-02-14T10:09:27.683Z,3.70
2018-02-14T10:11:55.272Z,3.69
2018-02-14T10:14:22.747Z,3.70
2018-02-14T10:16:50.260Z,3.76
2018-02-14T10:19:17.764Z,3.84
2018-02-14T10:21:45.285Z,3.86
2018-02-14T10:24:12.759Z,3.77
2018-02-14T10:26:40.328Z,3.96
2018-02-14T10:29:07.866Z,4.13
2018-02-14T10:31:35.504Z,4.22
2018-02-14T10:34:03.008Z,4.24
2018-02-14T10:36:30.735Z,4.14
2018-02-14T10:38:58.389Z,4.09
2018-02-14T10:41:25.884Z,4.17
2018-02-14T10:43:53.396Z,4.33
2018-02-14T10:46:20.922Z,4.40
2018-02-14T10:48:48.474Z,4.27
2018-02-14T10:51:16.028Z,4.28
2018-02-14T10:53:43.521Z,4.17
2018-02-14T10:56:11.057Z,4.13
2018-02-14T10:58:39.187Z,4.26
2018-02-14T11:01:06.715Z,4.35
2018-02-14T11:03:39.679Z,4.46
2018-02-14T11:06:13.089Z,4.46
2018-02-14T11:08:41.111Z,4.59
2018-02-14T11:11:08.701Z,5.83
2018-02-14T11:13:36.337Z,8.30
2018-02-14T11:16:03.826Z,9.85
2018-02-14T11:18:31.453Z,10.83
2018-02-14T11:20:59.013Z,12.43
2018-02-14T11:23:26.669Z,14.00
2018-02-14T11:25:54.174Z,15.30
2018-02-14T11:28:21.711Z,16.26
2018-02-14T11:30:49.233Z,16.87
2018-02-14T11:33:16.718Z,17.44
2018-02-14T11:35:44.283Z,17.67
2018-02-14T11:38:12.504Z,18.23
2018-02-14T11:40:40.008Z,18.65
2018-02-14T11:43:07.544Z,19.36
2018-02-14T11:45:35.057Z,19.97
2018-02-14T11:48:02.558Z,20.20
2018-02-14T11:50:30.095Z,20.65
2018-02-14T11:52:57.698Z,20.59
2018-02-14T11:55:25.278Z,20.74
2018-02-14T11:57:52.977Z,21.34
2018-02-14T12:00:20.695Z,21.53
2018-02-14T12:02:48.242Z,21.23
2018-02-14T12:05:15.787Z,21.01
2018-02-14T12:07:43.337Z,21.42
2018-02-14T12:10:10.873Z,21.98
2018-02-14T12:12:38.379Z,21.90
2018-02-14T12:15:05.891Z,21.19
2018-02-14T12:17:33.401Z,21.18
2018-02-14T12:20:00.950Z,21.51
2018-02-14T12:22:28.465Z,21.95
2018-02-14T12:24:56.001Z,21.98
2018-02-14T12:27:23.544Z,21.86
2018-02-14T12:29:51.667Z,22.16
2018-02-14T12:32:19.273Z,22.24
2018-02-14T12:34:46.793Z,22.58
2018-02-14T12:37:14.354Z,22.97
2018-02-14T12:39:41.903Z,23.45
2018-02-14T12:42:09.480Z,23.24
2018-02-14T12:44:36.997Z,22.85
2018-02-14T12:47:04.556Z,22.57
2018-02-14T12:49:32.048Z,22.76
2018-02-14T12:51:59.559Z,22.32
2018-02-14T12:54:27.075Z,22.80
2018-02-14T12:56:54.575Z,23.24
2018-02-14T12:59:22.108Z,22.87
2018-02-14T13:01:49.589Z,22.73
2018-02-14T13:04:17.210Z,22.50
2018-02-14T13:06:44.703Z,21.74
2018-02-14T13:09:12.282Z,21.06
2018-02-14T13:11:39.817Z,19.95
2018-02-14T13:14:07.346Z,19.08
2018-02-14T13:16:35.648Z,18.53
2018-02-14T13:19:03.269Z,17.80
2018-02-14T13:21:30.814Z,16.93
2018-02-14T13:23:58.362Z,16.34
2018-02-14T13:26:25.902Z,15.98
2018-02-14T13:28:53.408Z,15.79
2018-02-14T13:31:20.953Z,16.08
2018-02-14T13:33:48.512Z,15.96
2018-02-14T13:36:16.128Z,16.60
2018-02-14T13:38:43.639Z,16.58
2018-02-14T13:41:11.171Z,16.99
2018-02-14T13:43:38.676Z,17.67
2018-02-14T13:46:06.167Z,18.34
2018-02-14T13:48:33.683Z,18.48
2018-02-14T13:51:01.209Z,18.44
2018-02-14T13:53:28.773Z,18.25
2018-02-14T13:55:56.319Z,18.23
2018-02-14T13:58:25.066Z,17.67
2018-02-14T14:00:52.562Z,17.62
2018-02-14T14:03:20.099Z,17.23
2018-02-14T14:05:47.757Z,16.92
2018-02-14T14:08:15.285Z,16.37
2018-02-14T14:10:42.788Z,15.28
2018-02-14T14:13:10.283Z,14.81
2018-02-14T14:15:37.809Z,14.21
2018-02-14T14:18:05.298Z,13.87
2018-02-14T14:20:32.906Z,13.47
2018-02-14T14:23:00.454Z,13.31
2018-02-14T14:25:28.126Z,13.13
2018-02-14T14:27:55.652Z,12.93
2018-02-14T14:30:23.268Z,12.75
2018-02-14T14:32:50.900Z,12.64
2018-02-14T14:35:18.448Z,12.68
2018-02-14T14:37:46.057Z,12.65
2018-02-14T14:40:13.569Z,12.42
2018-02-14T14:42:41.118Z,12.31
2018-02-14T14:45:08.637Z,11.91
2018-02-14T14:47:37.414Z,11.94
2018-02-14T14:50:04.959Z,11.94
2018-02-14T14:52:32.584Z,11.90
2018-02-14T14:55:00.282Z,11.77
2018-02-14T14:57:27.814Z,11.50
2018-02-14T14:59:55.339Z,11.50
2018-02-14T15:02:22.837Z,11.60
2018-02-14T15:04:50.559Z,11.53
2018-02-14T15:07:18.139Z,11.34
2018-02-14T15:09:45.686Z,11.14
2018-02-14T15:12:13.219Z,11.05
2018-02-14T15:14:40.769Z,11.12
2018-02-14T15:17:08.278Z,11.16
2018-02-14T15:19:35.785Z,10.95
2018-02-14T15:22:03.428Z,10.76
2018-02-14T15:24:30.928Z,10.51
2018-02-14T15:26:58.516Z,10.27
2018-02-14T15:29:26.036Z,10.00
2018-02-14T15:31:53.575Z,9.92
2018-02-14T15:34:21.081Z,9.75
2018-02-14T15:36:48.555Z,9.62
2018-02-14T15:39:16.101Z,9.51
2018-02-14T15:41:43.667Z,9.47
2018-02-14T15:44:11.199Z,9.37
2018-02-14T15:46:38.721Z,9.58
2018-02-14T15:49:06.284Z,9.55
2018-02-14T15:51:33.786Z,9.37
2018-02-14T15:54:01.335Z,9.17
2018-02-14T15:56:28.851Z,9.07
2018-02-14T15:58:56.414Z,8.88
2018-02-14T16:01:23.955Z,8.76
2018-02-14T16:03:51.552Z,8.69
2018-02-14T16:06:19.083Z,8.62
2018-02-14T16:08:46.575Z,8.53
2018-02-14T16:11:14.076Z,8.37
2018-02-14T16:13:41.593Z,8.26
2018-02-14T16:16:09.089Z,8.11
2018-02-14T16:18:36.707Z,7.93
2018-02-14T16:21:04.220Z,7.89
2018-02-14T16:23:31.754Z,7.88
2018-02-14T16:25:59.286Z,7.85
2018-02-14T16:28:26.908Z,7.70
2018-02-14T16:30:54.434Z,7.59
2018-02-14T16:33:21.930Z,7.58
2018-02-14T16:35:49.529Z,7.48
2018-02-14T16:38:17.060Z,7.39
2018-02-14T16:40:44.649Z,7.27
2018-02-14T16:43:12.250Z,7.14
2018-02-14T16:45:39.839Z,7.10
2018-02-14T16:48:07.388Z,7.05
2018-02-14T16:50:34.883Z,7.02
2018-02-14T16:53:02.398Z,6.94
2018-02-14T16:55:29.932Z,6.84
2018-02-14T16:57:57.507Z,6.71
2018-02-14T17:00:25.004Z,6.64
2018-02-14T17:02:52.555Z,6.54
2018-02-14T17:05:20.084Z,6.42
2018-02-14T17:07:47.637Z,6.28
2018-02-14T17:10:15.146Z,6.16
2018-02-14T17:12:42.666Z,6.01
2018-02-14T17:15:10.193Z,5.88
2018-02-14T17:17:37.723Z,5.76
2018-02-14T17:20:05.269Z,5.73
2018-02-14T17:22:32.750Z,5.60
2018-02-14T17:25:00.304Z,5.44
2018-02-14T17:27:27.828Z,5.46
2018-02-14T17:29:55.403Z,5.39
2018-02-14T17:32:23.028Z,5.29
2018-02-14T17:34:50.602Z,5.21
2018-02-14T17:37:18.184Z,5.09
2018-02-14T17:39:45.739Z,5.01
2018-02-14T17:42:13.392Z,4.99
2018-02-14T17:44:40.934Z,4.89
2018-02-14T17:47:09.011Z,4.80
2018-02-14T17:49:37.167Z,4.72
2018-02-14T17:52:04.648Z,4.58
2018-02-14T17:54:33.043Z,4.46
2018-02-14T17:57:00.540Z,4.39
2018-02-14T17:59:28.097Z,4.36
2018-02-14T18:01:55.582Z,4.40
2018-02-14T18:04:23.128Z,4.40
2018-02-14T18:06:50.632Z,4.37
2018-02-14T18:09:18.169Z,4.39
2018-02-14T18:11:45.667Z,4.30
2018-02-14T18:14:13.183Z,4.22
2018-02-14T18:16:40.702Z,4.22
2018-02-14T18:19:08.217Z,4.22
2018-02-14T18:21:35.768Z,4.17
2018-02-14T18:24:03.264Z,4.12
2018-02-14T18:26:30.809Z,4.19
2018-02-14T18:28:58.338Z,4.16
2018-02-14T18:31:25.936Z,4.17
2018-02-14T18:33:53.472Z,4.15
2018-02-14T18:36:21.015Z,4.08
2018-02-14T18:38:48.514Z,4.04
2018-02-14T18:41:16.617Z,4.07
2018-02-14T18:43:44.197Z,3.99
2018-02-14T18:46:14.218Z,3.97
2018-02-14T18:48:43.451Z,3.94
2018-02-14T18:51:11.321Z,3.94
2018-02-14T18:53:40.400Z,3.85
2018-02-14T18:56:09.130Z,3.87
2018-02-14T18:58:36.807Z,3.85
2018-02-14T19:01:04.320Z,3.84
2018-02-14T19:03:31.849Z,3.81
2018-02-14T19:05:59.370Z,3.78
2018-02-14T19:08:26.898Z,3.81
2018-02-14T19:10:54.452Z,3.80
2018-02-14T19:13:21.973Z,3.70
2018-02-14T19:15:49.596Z,3.57
2018-02-14T19:18:17.081Z,3.61
2018-02-14T19:20:44.578Z,3.70
2018-02-14T19:23:12.179Z,3.76
2018-02-14T19:25:39.753Z,3.65
2018-02-14T19:28:07.281Z,3.61
2018-02-14T19:30:34.771Z,3.52
2018-02-14T19:33:02.335Z,3.46
2018-02-14T19:35:29.908Z,3.42
2018-02-14T19:37:58.041Z,3.41
2018-02-14T19:40:26.055Z,3.40
2018-02-14T19:42:53.584Z,3.45
2018-02-14T19:45:21.111Z,3.39
2018-02-14T19:47:48.628Z,3.33
2018-02-14T19:50:16.170Z,3.29
2018-02-14T19:52:43.677Z,3.23
2018-02-14T19:55:11.226Z,3.25
2018-02-14T19:57:38.737Z,3.26
2018-02-14T20:00:06.230Z,3.22
2018-02-14T20:02:33.801Z,3.29
2018-02-14T20:05:01.367Z,3.33
2018-02-14T20:07:28.900Z,3.27
2018-02-14T20:09:57.164Z,3.20
2018-02-14T20:12:24.705Z,3.20
2018-02-14T20:14:52.218Z,3.12
2018-02-14T20:17:19.799Z,3.13
2018-02-14T20:19:47.305Z,3.10
2018-02-14T20:22:14.841Z,3.18
2018-02-14T20:24:42.356Z,3.19
2018-02-14T20:27:10.661Z,3.10
2018-02-14T20:29:38.264Z,3.09
2018-02-14T20:32:05.822Z,3.11
2018-02-14T20:34:33.374Z,3.10
2018-02-14T20:37:01.581Z,3.07
2018-02-14T20:39:29.084Z,3.10
2018-02-14T20:41:56.599Z,3.15
2018-02-14T20:44:24.123Z,3.21
2018-02-14T20:46:51.611Z,3.27
2018-02-14T20:49:19.134Z,3.29
2018-02-14T20:51:47.300Z,3.28
2018-02-14T20:54:14.841Z,3.30
2018-02-14T20:56:42.324Z,3.33
2018-02-14T20:59:10.461Z,3.31
2018-02-14T21:01:37.982Z,3.30
2018-02-14T21:04:05.525Z,3.30
2018-02-14T21:06:33.111Z,3.29
2018-02-14T21:09:00.607Z,3.29
2018-02-14T21:11:28.168Z,3.27
2018-02-14T21:13:55.670Z,3.27
2018-02-14T21:16:23.201Z,3.24
2018-02-14T21:18:50.780Z,3.21
2018-02-14T21:21:18.338Z,3.22
2018-02-14T21:23:45.867Z,3.10
2018-02-14T21:26:13.387Z,3.13
2018-02-14T21:28:40.898Z,3.12
2018-02-14T21:31:08.418Z,3.08
2018-02-14T21:33:35.927Z,3.04
2018-02-14T21:36:03.416Z,3.00
2018-02-14T21:38:30.961Z,2.97
2018-02-14T21:40:58.578Z,2.92
2018-02-14T21:43:26.171Z,2.85
2018-02-14T21:45:54.601Z,2.86
2018-02-14T21:48:22.121Z,2.87
2018-02-14T21:50:49.615Z,2.85
2018-02-14T21:53:17.114Z,2.78
2018-02-14T21:55:44.625Z,2.77
2018-02-14T21:58:13.548Z,2.77
2018-02-14T22:00:41.048Z,2.71
2018-02-14T22:03:08.536Z,2.65
2018-02-14T22:05:36.122Z,2.66
2018-02-14T22:08:03.639Z,2.65
2018-02-14T22:10:31.167Z,2.55
2018-02-14T22:12:58.701Z,2.54
2018-02-14T22:15:26.298Z,2.53
2018-02-14T22:17:54.443Z,2.52
2018-02-14T22:20:21.925Z,2.53
2018-02-14T22:22:49.474Z,2.51
2018-02-14T22:25:16.961Z,2.49
2018-02-14T22:27:44.477Z,2.47
2018-02-14T22:30:11.986Z,2.49
2018-02-14T22:32:39.615Z,2.49
2018-02-14T22:35:07.123Z,2.48
2018-02-14T22:37:34.676Z,2.38
2018-02-14T22:40:02.173Z,2.39
2018-02-14T22:42:29.677Z,2.43
2018-02-14T22:44:57.187Z,2.42
2018-02-14T22:47:24.720Z,2.42
2018-02-14T22:49:52.254Z,2.42
2018-02-14T22:52:19.751Z,2.40
2018-02-14T22:54:47.292Z,2.35
2018-02-14T22:57:14.777Z,2.35
2018-02-14T22:59:42.283Z,2.35
2018-02-14T23:02:09.772Z,2.36
2018-02-14T23:04:37.297Z,2.33
2018-02-14T23:07:04.782Z,2.31
2018-02-14T23:09:32.307Z,2.30
2018-02-14T23:11:59.816Z,2.30
2018-02-14T23:14:27.314Z,2.28
2018-02-14T23:16:54.855Z,2.26
2018-02-14T23:19:22.348Z,2.19
2018-02-14T23:21:49.865Z,2.17
2018-02-14T23:24:17.347Z,2.16
2018-02-14T23:26:44.834Z,2.20
2018-02-14T23:29:12.359Z,2.19
2018-02-14T23:31:39.841Z,2.20
2018-02-14T23:34:07.382Z,2.21
2018-02-14T23:36:34.865Z,2.19
2018-02-14T23:39:02.512Z,2.16
2018-02-14T23:41:30.130Z,2.16
2018-02-14T23:43:57.831Z,2.18
2018-02-14T23:46:25.359Z,2.16
2018-02-14T23:48:52.965Z,2.13
2018-02-14T23:51:20.570Z,2.13
2018-02-14T23:53:48.080Z,2.13
2018-02-14T23:56:15.680Z,2.12
2018-02-14T23:58:43.153Z,2.13
